Aérodrome :
LOGIN :

S'inscrire | Disclaimer

   EN    FR    IT 

 










Légende :    VFR   VFR Marginal   IFR   IFR Intensif   IFR Très Intensif
Visi : 
Plafond : 
>= 8 km
>= 3000ft
5 à 8 km
1000 à 3000 ft
1500m à 5 km
500 à 1000 ft
800 à 1500m
200 à 500 ft
< 800m
< 200 ft
Symboles :   Orages  Brouillard  Fortes neiges  Fortes précipitations  Vent > 20 kt
SIGMETs :   Divers  Orages  Givrage  Turbulence  Onde Orograph.  Cendres Volcan.







- Altitude de l'aérodrome : 97 ft
- Code IATA : EBJ


EKEB - Esbjerg

DERNIER METAR :
  • 280950Z AUTO 07006KT 030V120 9999NDV -RA OVC073/// 15/13 Q1004

METARs EXPIRÉS :
  • 280920Z AUTO 08007KT 030V130 9999NDV -RA OVC084/// 15/13 Q1005
  • 280850Z AUTO 08006KT 030V130 9999NDV -RA OVC086/// 15/12 Q1005
  • 280820Z AUTO 09007KT 050V120 9999NDV -DZ OVC087/// 15/11 Q1005
  • 280750Z AUTO 09009KT 040V130 9999NDV BKN089/// 16/10 Q1005
  • 280720Z AUTO 09006KT 040V120 9999NDV FEW100/// BKN110/// 16/11 Q1005

TAF TAF EKEB
Valide du 28 à 09h jusqu'au 28 à 18h UTC


280825Z 2809/2818 08015KT 9999 -RA SCT020
Pas de NOTAMs connus pour ce terrain.



MET'MAP, la Météo Aéronautique d'un coup d'oeil ! - Copyright ORBIFLY Décembre 2007 - Disclaimer

ORBIFLY MET'MAP TEAM :

Programmation & Développement : Alexandra Zaïnal
Conception & Développement : Baudouin d'Aumeries
Co-Programmation & Développement : Marc-Olivier Méhu
Soutien technique & logistique : Manuel Goepfert

Contact : metmap@orbifly.com




SOURCES & CREDITS :

   NOAA